Date,TemperatureHighF,TemperatureAvgF,TemperatureLowF,DewpointHighF,DewpointAvgF,DewpointLowF,HumidityHigh,HumidityAvg,HumidityLow,PressureMaxIn,PressureMinIn,WindSpeedMaxMPH,WindSpeedAvgMPH,GustSpeedMaxMPH,PrecipitationSumIn
2013-5-1,76.6,69.9,66.0,70.7,67.0,64.9,98,91,72,29.93,29.83,14,4,14,0.14
2013-5-2,77.2,68.3,64.0,68.4,65.4,63.0,98,91,70,29.99,29.88,13,3,14,0.48
2013-5-3,66.7,55.4,49.1,66.2,52.1,45.1,98,89,74,30.09,29.93,27,9,27,0.04
2013-5-4,72.1,58.9,44.2,54.7,45.9,39.0,94,66,32,30.08,29.90,23,5,23,0.00
2013-5-5,63.5,58.0,52.3,55.0,45.8,41.5,86,65,49,30.08,29.92,23,7,23,0.00
2013-5-6,74.5,62.6,49.6,57.7,50.9,45.1,93,68,45,30.09,29.96,17,6,22,0.00
2013-5-7,80.2,68.9,56.7,61.3,58.5,55.6,97,72,45,30.08,30.00,16,3,16,0.00
2013-5-8,83.1,71.6,59.2,65.8,62.0,57.6,97,74,46,30.13,30.04,17,4,17,0.00
2013-5-9,82.8,74.1,64.4,69.8,66.7,62.6,96,79,55,30.11,30.01,20,6,20,0.00
2013-5-10,74.5,68.4,64.2,72.3,66.5,62.8,97,94,90,30.11,29.86,37,7,37,2.87
2013-5-11,76.1,69.3,63.7,69.3,66.0,62.8,98,89,78,30.12,29.97,27,3,27,0.81
2013-5-12,79.0,70.0,62.8,64.6,60.0,52.2,91,72,50,30.19,30.08,14,5,15,0.81
2013-5-13,78.1,67.6,56.7,56.7,49.8,44.8,74,55,38,30.32,30.19,16,5,17,0.00
2013-5-14,84.2,71.6,58.8,62.8,57.6,51.3,95,65,35,30.30,30.17,15,4,16,0.00
2013-5-15,82.4,72.1,63.1,67.8,63.2,60.3,94,75,51,30.21,30.03,17,4,17,0.00
2013-5-16,84.0,74.8,65.7,69.8,66.0,60.6,93,76,50,30.06,29.91,21,6,21,0.00
2013-5-17,86.9,78.8,71.4,73.6,71.6,68.9,95,80,58,30.04,29.95,19,6,19,0.00
2013-5-18,88.0,80.2,74.8,73.9,72.0,68.9,95,77,57,30.08,29.99,17,6,18,0.00
2013-5-19,88.0,80.1,73.0,75.2,73.3,71.2,96,81,61,30.02,29.94,22,6,22,0.00
2013-5-20,89.2,81.4,74.1,76.3,74.4,72.3,97,81,61,30.01,29.91,22,7,24,0.00
2013-5-21,89.8,81.4,75.0,75.6,73.8,71.1,95,79,59,29.97,29.82,21,7,23,0.00
2013-5-22,80.4,74.2,67.1,73.9,70.6,64.9,97,89,73,30.03,29.88,21,6,23,1.50
2013-5-23,88.9,77.6,69.3,76.1,71.9,62.4,99,84,63,30.14,29.97,28,4,30,1.05
2013-5-24,89.4,77.8,68.5,75.2,70.5,63.5,94,79,55,30.17,30.06,23,2,23,0.08
2013-5-25,84.6,77.0,69.1,71.2,67.4,60.8,87,73,61,30.23,30.13,16,6,16,0.00
2013-5-26,84.4,77.1,70.2,71.8,68.6,65.5,93,76,59,30.19,30.10,15,5,16,0.00
2013-5-27,88.2,78.7,69.4,73.2,69.3,66.0,95,74,53,30.14,30.02,16,6,16,0.00
2013-5-28,86.4,78.2,71.1,73.4,69.8,66.7,92,76,57,30.09,29.98,20,7,21,0.01
2013-5-29,84.9,77.9,72.7,76.5,73.3,68.0,96,86,69,30.02,29.93,28,9,29,1.09
2013-5-30,86.4,79.8,75.4,76.5,74.6,72.5,95,85,69,30.01,29.92,28,10,28,0.39
2013-5-31,88.5,81.4,75.0,77.2,75.1,72.7,96,82,64,30.01,29.94,18,7,19,0.00